sensor_id;sensor_type;location;lat;lon;timestamp;P1;durP1;ratioP1;P2;durP2;ratioP2
22046;SDS011;11187;49.412;20.956;2023-03-01T00:01:07;32.65;;;20.40;;
22046;SDS011;11187;49.412;20.956;2023-03-01T00:03:57;35.40;;;21.48;;
22046;SDS011;11187;49.412;20.956;2023-03-01T00:06:31;30.15;;;21.45;;
22046;SDS011;11187;49.412;20.956;2023-03-01T00:09:24;33.97;;;20.17;;
22046;SDS011;11187;49.412;20.956;2023-03-01T00:12:18;29.48;;;20.95;;
22046;SDS011;11187;49.412;20.956;2023-03-01T00:14:52;27.63;;;20.38;;
22046;SDS011;11187;49.412;20.956;2023-03-01T00:17:45;28.75;;;21.58;;
22046;SDS011;11187;49.412;20.956;2023-03-01T00:20:39;31.75;;;21.85;;
22046;SDS011;11187;49.412;20.956;2023-03-01T00:23:13;34.45;;;21.85;;
22046;SDS011;11187;49.412;20.956;2023-03-01T00:25:59;30.40;;;19.10;;
22046;SDS011;11187;49.412;20.956;2023-03-01T00:28:33;28.08;;;20.85;;
22046;SDS011;11187;49.412;20.956;2023-03-01T00:31:27;25.95;;;19.58;;
22046;SDS011;11187;49.412;20.956;2023-03-01T00:34:03;30.20;;;20.63;;
22046;SDS011;11187;49.412;20.956;2023-03-01T00:36:50;34.30;;;20.67;;
22046;SDS011;11187;49.412;20.956;2023-03-01T00:39:24;24.48;;;20.55;;
22046;SDS011;11187;49.412;20.956;2023-03-01T00:42:10;28.60;;;21.55;;
22046;SDS011;11187;49.412;20.956;2023-03-01T00:44:44;29.83;;;21.75;;
22046;SDS011;11187;49.412;20.956;2023-03-01T00:47:30;29.13;;;20.60;;
22046;SDS011;11187;49.412;20.956;2023-03-01T00:50:04;30.40;;;20.58;;
22046;SDS011;11187;49.412;20.956;2023-03-01T00:52:52;28.65;;;20.83;;
22046;SDS011;11187;49.412;20.956;2023-03-01T00:55:28;26.75;;;20.05;;
22046;SDS011;11187;49.412;20.956;2023-03-01T00:58:14;25.20;;;20.05;;
22046;SDS011;11187;49.412;20.956;2023-03-01T01:00:48;28.65;;;20.38;;
22046;SDS011;11187;49.412;20.956;2023-03-01T01:03:41;33.30;;;20.45;;
22046;SDS011;11187;49.412;20.956;2023-03-01T01:06:17;24.70;;;20.77;;
22046;SDS011;11187;49.412;20.956;2023-03-01T01:09:14;31.92;;;21.40;;
22046;SDS011;11187;49.412;20.956;2023-03-01T01:12:09;25.33;;;18.60;;
22046;SDS011;11187;49.412;20.956;2023-03-01T01:14:43;24.45;;;18.15;;
22046;SDS011;11187;49.412;20.956;2023-03-01T01:17:29;23.55;;;18.42;;
22046;SDS011;11187;49.412;20.956;2023-03-01T01:20:03;27.92;;;18.80;;
22046;SDS011;11187;49.412;20.956;2023-03-01T01:22:57;21.92;;;18.30;;
22046;SDS011;11187;49.412;20.956;2023-03-01T01:25:33;29.13;;;19.52;;
22046;SDS011;11187;49.412;20.956;2023-03-01T01:28:28;30.33;;;19.92;;
22046;SDS011;11187;49.412;20.956;2023-03-01T01:31:02;31.35;;;20.83;;
22046;SDS011;11187;49.412;20.956;2023-03-01T01:33:57;27.55;;;19.40;;
22046;SDS011;11187;49.412;20.956;2023-03-01T01:36:53;30.60;;;20.75;;
22046;SDS011;11187;49.412;20.956;2023-03-01T01:39:48;28.98;;;20.17;;
22046;SDS011;11187;49.412;20.956;2023-03-01T01:42:42;26.25;;;19.73;;
22046;SDS011;11187;49.412;20.956;2023-03-01T01:45:34;30.60;;;21.50;;
22046;SDS011;11187;49.412;20.956;2023-03-01T01:48:23;34.33;;;20.58;;
22046;SDS011;11187;49.412;20.956;2023-03-01T01:51:14;31.73;;;20.27;;
22046;SDS011;11187;49.412;20.956;2023-03-01T01:54:08;25.98;;;20.40;;
22046;SDS011;11187;49.412;20.956;2023-03-01T01:56:47;25.38;;;19.95;;
22046;SDS011;11187;49.412;20.956;2023-03-01T01:59:52;25.95;;;20.55;;
22046;SDS011;11187;49.412;20.956;2023-03-01T02:02:54;27.80;;;20.63;;
22046;SDS011;11187;49.412;20.956;2023-03-01T02:05:38;24.73;;;20.33;;
22046;SDS011;11187;49.412;20.956;2023-03-01T02:08:35;31.50;;;19.80;;
22046;SDS011;11187;49.412;20.956;2023-03-01T02:11:10;34.90;;;21.30;;
22046;SDS011;11187;49.412;20.956;2023-03-01T02:13:57;31.58;;;20.30;;
22046;SDS011;11187;49.412;20.956;2023-03-01T02:16:31;26.50;;;19.23;;
22046;SDS011;11187;49.412;20.956;2023-03-01T02:19:23;29.65;;;20.08;;
22046;SDS011;11187;49.412;20.956;2023-03-01T02:22:18;25.67;;;19.30;;
22046;SDS011;11187;49.412;20.956;2023-03-01T02:31:07;22.25;;;19.13;;
22046;SDS011;11187;49.412;20.956;2023-03-01T02:34:23;25.75;;;18.60;;
22046;SDS011;11187;49.412;20.956;2023-03-01T02:37:17;29.27;;;20.02;;
22046;SDS011;11187;49.412;20.956;2023-03-01T02:39:59;26.23;;;19.23;;
22046;SDS011;11187;49.412;20.956;2023-03-01T02:42:56;26.90;;;20.45;;
22046;SDS011;11187;49.412;20.956;2023-03-01T02:45:31;24.38;;;19.77;;
22046;SDS011;11187;49.412;20.956;2023-03-01T02:48:18;27.13;;;18.88;;
22046;SDS011;11187;49.412;20.956;2023-03-01T02:54:15;23.10;;;17.90;;
22046;SDS011;11187;49.412;20.956;2023-03-01T02:57:00;29.23;;;17.65;;
22046;SDS011;11187;49.412;20.956;2023-03-01T02:59:47;24.30;;;18.45;;
22046;SDS011;11187;49.412;20.956;2023-03-01T03:02:24;22.17;;;18.00;;
22046;SDS011;11187;49.412;20.956;2023-03-01T03:05:24;27.05;;;18.00;;
22046;SDS011;11187;49.412;20.956;2023-03-01T03:08:21;24.08;;;17.55;;
22046;SDS011;11187;49.412;20.956;2023-03-01T03:11:15;20.23;;;17.92;;
22046;SDS011;11187;49.412;20.956;2023-03-01T03:13:49;24.95;;;18.48;;
22046;SDS011;11187;49.412;20.956;2023-03-01T03:16:35;24.40;;;20.00;;
22046;SDS011;11187;49.412;20.956;2023-03-01T03:19:09;26.92;;;19.30;;
22046;SDS011;11187;49.412;20.956;2023-03-01T03:21:56;23.50;;;18.48;;
22046;SDS011;11187;49.412;20.956;2023-03-01T03:24:30;25.73;;;19.85;;
22046;SDS011;11187;49.412;20.956;2023-03-01T03:27:24;25.85;;;18.60;;
22046;SDS011;11187;49.412;20.956;2023-03-01T03:30:19;22.27;;;18.65;;
22046;SDS011;11187;49.412;20.956;2023-03-01T03:33:12;26.15;;;17.85;;
22046;SDS011;11187;49.412;20.956;2023-03-01T03:35:47;30.38;;;19.60;;
22046;SDS011;11187;49.412;20.956;2023-03-01T03:38:43;26.45;;;19.55;;
22046;SDS011;11187;49.412;20.956;2023-03-01T03:41:18;26.52;;;18.45;;
22046;SDS011;11187;49.412;20.956;2023-03-01T03:44:11;30.95;;;19.13;;
22046;SDS011;11187;49.412;20.956;2023-03-01T03:46:45;28.83;;;19.65;;
22046;SDS011;11187;49.412;20.956;2023-03-01T03:49:31;36.38;;;19.45;;
22046;SDS011;11187;49.412;20.956;2023-03-01T03:52:06;29.77;;;19.77;;
22046;SDS011;11187;49.412;20.956;2023-03-01T03:54:59;26.70;;;19.15;;
22046;SDS011;11187;49.412;20.956;2023-03-01T03:57:33;29.33;;;20.40;;
22046;SDS011;11187;49.412;20.956;2023-03-01T04:00:20;24.08;;;17.45;;
22046;SDS011;11187;49.412;20.956;2023-03-01T04:02:56;32.45;;;19.15;;
22046;SDS011;11187;49.412;20.956;2023-03-01T04:05:42;23.75;;;18.38;;
22046;SDS011;11187;49.412;20.956;2023-03-01T04:08:17;28.23;;;17.83;;
22046;SDS011;11187;49.412;20.956;2023-03-01T04:11:05;26.20;;;17.73;;
22046;SDS011;11187;49.412;20.956;2023-03-01T04:13:57;29.90;;;19.45;;
22046;SDS011;11187;49.412;20.956;2023-03-01T04:16:45;20.23;;;17.77;;
22046;SDS011;11187;49.412;20.956;2023-03-01T04:19:19;21.15;;;18.33;;
22046;SDS011;11187;49.412;20.956;2023-03-01T04:22:06;23.60;;;17.50;;
22046;SDS011;11187;49.412;20.956;2023-03-01T04:24:50;27.35;;;17.40;;
22046;SDS011;11187;49.412;20.956;2023-03-01T04:27:36;26.73;;;17.38;;
22046;SDS011;11187;49.412;20.956;2023-03-01T04:30:10;20.83;;;16.58;;
22046;SDS011;11187;49.412;20.956;2023-03-01T04:32:57;23.15;;;16.63;;
22046;SDS011;11187;49.412;20.956;2023-03-01T04:35:31;19.15;;;14.93;;
22046;SDS011;11187;49.412;20.956;2023-03-01T04:38:20;22.35;;;18.05;;
22046;SDS011;11187;49.412;20.956;2023-03-01T04:40:54;21.92;;;17.80;;
22046;SDS011;11187;49.412;20.956;2023-03-01T04:43:47;24.33;;;17.80;;
22046;SDS011;11187;49.412;20.956;2023-03-01T04:46:41;19.60;;;15.40;;
22046;SDS011;11187;49.412;20.956;2023-03-01T04:49:15;17.90;;;14.85;;
22046;SDS011;11187;49.412;20.956;2023-03-01T04:52:09;24.55;;;17.27;;
22046;SDS011;11187;49.412;20.956;2023-03-01T04:54:43;23.88;;;17.50;;
22046;SDS011;11187;49.412;20.956;2023-03-01T04:57:29;20.38;;;17.13;;
22046;SDS011;11187;49.412;20.956;2023-03-01T05:00:03;28.20;;;17.85;;
22046;SDS011;11187;49.412;20.956;2023-03-01T05:03:05;22.98;;;17.90;;
22046;SDS011;11187;49.412;20.956;2023-03-01T05:06:04;32.20;;;16.38;;
22046;SDS011;11187;49.412;20.956;2023-03-01T05:08:58;24.40;;;16.65;;
22046;SDS011;11187;49.412;20.956;2023-03-01T05:11:32;34.78;;;19.90;;
22046;SDS011;11187;49.412;20.956;2023-03-01T05:14:25;22.15;;;19.58;;
22046;SDS011;11187;49.412;20.956;2023-03-01T05:17:21;25.27;;;18.55;;
22046;SDS011;11187;49.412;20.956;2023-03-01T05:19:55;25.73;;;17.58;;
22046;SDS011;11187;49.412;20.956;2023-03-01T05:22:45;29.45;;;16.30;;
22046;SDS011;11187;49.412;20.956;2023-03-01T05:25:19;24.05;;;19.05;;
22046;SDS011;11187;49.412;20.956;2023-03-01T05:28:07;29.90;;;19.70;;
22046;SDS011;11187;49.412;20.956;2023-03-01T05:30:44;23.52;;;18.30;;
22046;SDS011;11187;49.412;20.956;2023-03-01T05:33:39;25.02;;;17.27;;
22046;SDS011;11187;49.412;20.956;2023-03-01T05:36:33;27.38;;;18.65;;
22046;SDS011;11187;49.412;20.956;2023-03-01T05:39:28;24.13;;;18.20;;
22046;SDS011;11187;49.412;20.956;2023-03-01T05:42:22;25.25;;;15.98;;
22046;SDS011;11187;49.412;20.956;2023-03-01T05:44:56;25.50;;;16.95;;
22046;SDS011;11187;49.412;20.956;2023-03-01T05:47:43;28.38;;;18.15;;
22046;SDS011;11187;49.412;20.956;2023-03-01T05:50:22;26.05;;;17.30;;
22046;SDS011;11187;49.412;20.956;2023-03-01T05:53:11;24.08;;;18.27;;
22046;SDS011;11187;49.412;20.956;2023-03-01T05:55:56;29.02;;;18.60;;
22046;SDS011;11187;49.412;20.956;2023-03-01T05:58:51;35.92;;;17.92;;
22046;SDS011;11187;49.412;20.956;2023-03-01T06:01:45;27.58;;;18.33;;
22046;SDS011;11187;49.412;20.956;2023-03-01T06:04:39;31.33;;;18.52;;
22046;SDS011;11187;49.412;20.956;2023-03-01T06:07:34;36.55;;;18.88;;
22046;SDS011;11187;49.412;20.956;2023-03-01T06:10:08;28.40;;;17.85;;
22046;SDS011;11187;49.412;20.956;2023-03-01T06:12:57;27.20;;;18.08;;
22046;SDS011;11187;49.412;20.956;2023-03-01T06:15:31;23.00;;;17.33;;
22046;SDS011;11187;49.412;20.956;2023-03-01T06:18:24;22.33;;;16.33;;
22046;SDS011;11187;49.412;20.956;2023-03-01T06:21:18;28.55;;;17.38;;
22046;SDS011;11187;49.412;20.956;2023-03-01T06:24:14;28.52;;;19.38;;
22046;SDS011;11187;49.412;20.956;2023-03-01T06:27:08;24.65;;;17.20;;
22046;SDS011;11187;49.412;20.956;2023-03-01T06:29:42;25.15;;;15.52;;
22046;SDS011;11187;49.412;20.956;2023-03-01T06:32:28;28.75;;;18.88;;
22046;SDS011;11187;49.412;20.956;2023-03-01T06:35:03;28.35;;;17.50;;
22046;SDS011;11187;49.412;20.956;2023-03-01T06:37:50;27.05;;;19.05;;
22046;SDS011;11187;49.412;20.956;2023-03-01T06:40:24;28.55;;;19.60;;
22046;SDS011;11187;49.412;20.956;2023-03-01T06:43:10;27.30;;;19.15;;
22046;SDS011;11187;49.412;20.956;2023-03-01T06:45:44;26.88;;;18.90;;
22046;SDS011;11187;49.412;20.956;2023-03-01T06:48:30;24.10;;;17.83;;
22046;SDS011;11187;49.412;20.956;2023-03-01T06:51:04;27.30;;;17.48;;
22046;SDS011;11187;49.412;20.956;2023-03-01T06:53:50;27.83;;;19.30;;
22046;SDS011;11187;49.412;20.956;2023-03-01T06:56:26;26.70;;;19.35;;
22046;SDS011;11187;49.412;20.956;2023-03-01T06:59:20;25.75;;;18.58;;
22046;SDS011;11187;49.412;20.956;2023-03-01T07:01:54;28.85;;;18.20;;
22046;SDS011;11187;49.412;20.956;2023-03-01T07:04:41;26.67;;;19.55;;
22046;SDS011;11187;49.412;20.956;2023-03-01T07:07:15;31.50;;;19.45;;
22046;SDS011;11187;49.412;20.956;2023-03-01T07:10:03;30.95;;;18.85;;
22046;SDS011;11187;49.412;20.956;2023-03-01T07:12:36;25.00;;;19.70;;
22046;SDS011;11187;49.412;20.956;2023-03-01T07:15:23;32.47;;;20.08;;
22046;SDS011;11187;49.412;20.956;2023-03-01T07:17:56;28.30;;;20.23;;
22046;SDS011;11187;49.412;20.956;2023-03-01T07:20:50;29.00;;;19.40;;
22046;SDS011;11187;49.412;20.956;2023-03-01T07:23:43;29.45;;;19.88;;
22046;SDS011;11187;49.412;20.956;2023-03-01T07:26:40;34.22;;;21.05;;
22046;SDS011;11187;49.412;20.956;2023-03-01T07:29:14;33.35;;;20.60;;
22046;SDS011;11187;49.412;20.956;2023-03-01T07:32:07;35.10;;;21.13;;
22046;SDS011;11187;49.412;20.956;2023-03-01T07:34:42;36.83;;;20.35;;
22046;SDS011;11187;49.412;20.956;2023-03-01T07:37:28;42.08;;;20.88;;
22046;SDS011;11187;49.412;20.956;2023-03-01T07:40:02;37.90;;;22.88;;
22046;SDS011;11187;49.412;20.956;2023-03-01T07:42:54;33.75;;;22.08;;
22046;SDS011;11187;49.412;20.956;2023-03-01T07:45:28;37.28;;;24.02;;
22046;SDS011;11187;49.412;20.956;2023-03-01T07:48:22;30.70;;;22.63;;
22046;SDS011;11187;49.412;20.956;2023-03-01T07:51:03;39.88;;;23.35;;
22046;SDS011;11187;49.412;20.956;2023-03-01T07:54:00;32.38;;;20.38;;
22046;SDS011;11187;49.412;20.956;2023-03-01T07:56:34;33.83;;;21.67;;
22046;SDS011;11187;49.412;20.956;2023-03-01T07:59:28;31.02;;;20.52;;
22046;SDS011;11187;49.412;20.956;2023-03-01T08:02:02;43.17;;;25.15;;
22046;SDS011;11187;49.412;20.956;2023-03-01T08:04:48;38.53;;;25.35;;
22046;SDS011;11187;49.412;20.956;2023-03-01T08:07:22;41.25;;;27.33;;
22046;SDS011;11187;49.412;20.956;2023-03-01T08:10:09;32.67;;;22.20;;
22046;SDS011;11187;49.412;20.956;2023-03-01T08:12:43;30.33;;;21.10;;
22046;SDS011;11187;49.412;20.956;2023-03-01T08:15:29;38.95;;;23.83;;
22046;SDS011;11187;49.412;20.956;2023-03-01T08:18:03;32.67;;;21.15;;
22046;SDS011;11187;49.412;20.956;2023-03-01T08:21:01;30.98;;;21.52;;
22046;SDS011;11187;49.412;20.956;2023-03-01T08:23:58;26.77;;;22.08;;
22046;SDS011;11187;49.412;20.956;2023-03-01T08:26:32;40.25;;;22.42;;
22046;SDS011;11187;49.412;20.956;2023-03-01T08:29:26;33.92;;;23.77;;
22046;SDS011;11187;49.412;20.956;2023-03-01T08:32:00;31.23;;;23.05;;
22046;SDS011;11187;49.412;20.956;2023-03-01T08:34:53;29.02;;;20.98;;
22046;SDS011;11187;49.412;20.956;2023-03-01T08:37:48;28.42;;;20.40;;
22046;SDS011;11187;49.412;20.956;2023-03-01T08:40:21;38.08;;;24.05;;
22046;SDS011;11187;49.412;20.956;2023-03-01T08:43:08;38.83;;;24.08;;
22046;SDS011;11187;49.412;20.956;2023-03-01T08:45:41;35.05;;;23.90;;
22046;SDS011;11187;49.412;20.956;2023-03-01T08:48:28;29.98;;;20.40;;
22046;SDS011;11187;49.412;20.956;2023-03-01T08:51:11;33.00;;;21.40;;
22046;SDS011;11187;49.412;20.956;2023-03-01T08:53:59;25.08;;;20.25;;
22046;SDS011;11187;49.412;20.956;2023-03-01T08:56:33;31.73;;;25.17;;
22046;SDS011;11187;49.412;20.956;2023-03-01T08:59:27;26.10;;;20.60;;
22046;SDS011;11187;49.412;20.956;2023-03-01T09:02:23;27.27;;;22.08;;
22046;SDS011;11187;49.412;20.956;2023-03-01T09:04:57;24.40;;;20.85;;
22046;SDS011;11187;49.412;20.956;2023-03-01T09:07:44;30.30;;;21.35;;
22046;SDS011;11187;49.412;20.956;2023-03-01T09:10:17;32.03;;;21.73;;
22046;SDS011;11187;49.412;20.956;2023-03-01T09:13:03;24.92;;;19.17;;
22046;SDS011;11187;49.412;20.956;2023-03-01T09:15:37;25.33;;;19.63;;
22046;SDS011;11187;49.412;20.956;2023-03-01T09:18:25;23.42;;;20.95;;
22046;SDS011;11187;49.412;20.956;2023-03-01T09:21:04;19.80;;;17.75;;
22046;SDS011;11187;49.412;20.956;2023-03-01T09:24:19;19.77;;;17.25;;
22046;SDS011;11187;49.412;20.956;2023-03-01T09:27:14;22.10;;;19.23;;
22046;SDS011;11187;49.412;20.956;2023-03-01T09:29:47;22.65;;;18.48;;
22046;SDS011;11187;49.412;20.956;2023-03-01T09:32:36;23.45;;;19.33;;
22046;SDS011;11187;49.412;20.956;2023-03-01T09:35:09;21.23;;;18.00;;
22046;SDS011;11187;49.412;20.956;2023-03-01T09:38:02;21.92;;;17.88;;
22046;SDS011;11187;49.412;20.956;2023-03-01T09:40:57;21.75;;;17.80;;
22046;SDS011;11187;49.412;20.956;2023-03-01T09:43:44;21.73;;;18.35;;
22046;SDS011;11187;49.412;20.956;2023-03-01T09:46:44;18.48;;;16.45;;
22046;SDS011;11187;49.412;20.956;2023-03-01T09:49:39;22.15;;;18.15;;
22046;SDS011;11187;49.412;20.956;2023-03-01T09:55:14;17.75;;;15.85;;
22046;SDS011;11187;49.412;20.956;2023-03-01T09:57:52;20.33;;;17.70;;
22046;SDS011;11187;49.412;20.956;2023-03-01T10:00:42;18.33;;;16.55;;
22046;SDS011;11187;49.412;20.956;2023-03-01T10:03:43;16.77;;;15.07;;
22046;SDS011;11187;49.412;20.956;2023-03-01T10:06:38;17.55;;;15.82;;
22046;SDS011;11187;49.412;20.956;2023-03-01T10:09:16;17.95;;;16.15;;
22046;SDS011;11187;49.412;20.956;2023-03-01T10:12:17;18.30;;;15.35;;
22046;SDS011;11187;49.412;20.956;2023-03-01T10:15:20;17.17;;;15.05;;
22046;SDS011;11187;49.412;20.956;2023-03-01T10:18:03;15.73;;;14.23;;
22046;SDS011;11187;49.412;20.956;2023-03-01T10:21:03;15.82;;;13.88;;
22046;SDS011;11187;49.412;20.956;2023-03-01T10:23:45;19.45;;;14.40;;
22046;SDS011;11187;49.412;20.956;2023-03-01T10:29:31;18.38;;;15.43;;
22046;SDS011;11187;49.412;20.956;2023-03-01T10:32:49;18.27;;;16.45;;
22046;SDS011;11187;49.412;20.956;2023-03-01T10:35:46;22.10;;;15.93;;
22046;SDS011;11187;49.412;20.956;2023-03-01T10:38:50;17.13;;;15.05;;
22046;SDS011;11187;49.412;20.956;2023-03-01T10:41:29;17.63;;;15.70;;
22046;SDS011;11187;49.412;20.956;2023-03-01T10:47:36;18.70;;;16.70;;
22046;SDS011;11187;49.412;20.956;2023-03-01T10:50:30;18.05;;;16.35;;
22046;SDS011;11187;49.412;20.956;2023-03-01T10:53:37;17.02;;;15.35;;
22046;SDS011;11187;49.412;20.956;2023-03-01T10:56:45;18.73;;;16.77;;
22046;SDS011;11187;49.412;20.956;2023-03-01T10:59:22;24.70;;;17.95;;
22046;SDS011;11187;49.412;20.956;2023-03-01T11:02:28;17.98;;;16.27;;
22046;SDS011;11187;49.412;20.956;2023-03-01T11:05:24;16.95;;;15.27;;
22046;SDS011;11187;49.412;20.956;2023-03-01T11:07:59;17.65;;;15.77;;
22046;SDS011;11187;49.412;20.956;2023-03-01T11:10:47;18.38;;;16.63;;
22046;SDS011;11187;49.412;20.956;2023-03-01T11:13:20;18.80;;;16.93;;
22046;SDS011;11187;49.412;20.956;2023-03-01T11:16:07;18.35;;;16.55;;
22046;SDS011;11187;49.412;20.956;2023-03-01T11:18:45;19.80;;;17.88;;
22046;SDS011;11187;49.412;20.956;2023-03-01T11:22:03;20.02;;;17.88;;
22046;SDS011;11187;49.412;20.956;2023-03-01T11:24:47;18.67;;;16.85;;
22046;SDS011;11187;49.412;20.956;2023-03-01T11:27:49;19.35;;;17.38;;
22046;SDS011;11187;49.412;20.956;2023-03-01T11:42:37;20.08;;;17.40;;
22046;SDS011;11187;49.412;20.956;2023-03-01T11:45:19;25.02;;;19.55;;
22046;SDS011;11187;49.412;20.956;2023-03-01T11:48:26;22.63;;;18.83;;
22046;SDS011;11187;49.412;20.956;2023-03-01T12:07:03;26.45;;;22.05;;
22046;SDS011;11187;49.412;20.956;2023-03-01T12:22:32;27.15;;;20.33;;
22046;SDS011;11187;49.412;20.956;2023-03-01T12:28:29;27.00;;;21.77;;
22046;SDS011;11187;49.412;20.956;2023-03-01T12:34:25;26.58;;;21.02;;
22046;SDS011;11187;49.412;20.956;2023-03-01T12:44:07;29.00;;;21.30;;
22046;SDS011;11187;49.412;20.956;2023-03-01T12:49:56;24.73;;;18.70;;
22046;SDS011;11187;49.412;20.956;2023-03-01T12:52:41;26.83;;;20.15;;
22046;SDS011;11187;49.412;20.956;2023-03-01T12:55:42;26.00;;;17.95;;
22046;SDS011;11187;49.412;20.956;2023-03-01T13:07:30;27.40;;;19.02;;
22046;SDS011;11187;49.412;20.956;2023-03-01T13:10:34;26.58;;;19.67;;
22046;SDS011;11187;49.412;20.956;2023-03-01T13:13:20;22.63;;;17.13;;
22046;SDS011;11187;49.412;20.956;2023-03-01T13:19:08;32.33;;;17.35;;
22046;SDS011;11187;49.412;20.956;2023-03-01T13:22:00;23.58;;;17.67;;
22046;SDS011;11187;49.412;20.956;2023-03-01T13:25:01;23.92;;;18.15;;
22046;SDS011;11187;49.412;20.956;2023-03-01T13:31:09;24.55;;;16.55;;
22046;SDS011;11187;49.412;20.956;2023-03-01T13:34:40;19.83;;;15.60;;
22046;SDS011;11187;49.412;20.956;2023-03-01T13:37:36;22.80;;;18.30;;
22046;SDS011;11187;49.412;20.956;2023-03-01T13:43:32;23.95;;;17.27;;
22046;SDS011;11187;49.412;20.956;2023-03-01T13:46:09;22.33;;;16.75;;
22046;SDS011;11187;49.412;20.956;2023-03-01T13:49:33;23.77;;;17.60;;
22046;SDS011;11187;49.412;20.956;2023-03-01T13:52:44;25.67;;;17.92;;
22046;SDS011;11187;49.412;20.956;2023-03-01T13:55:47;32.95;;;20.13;;
22046;SDS011;11187;49.412;20.956;2023-03-01T14:01:33;28.05;;;19.85;;
22046;SDS011;11187;49.412;20.956;2023-03-01T14:04:18;27.67;;;20.70;;
22046;SDS011;11187;49.412;20.956;2023-03-01T14:07:18;29.50;;;18.95;;
22046;SDS011;11187;49.412;20.956;2023-03-01T14:10:03;26.25;;;18.75;;
22046;SDS011;11187;49.412;20.956;2023-03-01T14:13:02;27.90;;;18.48;;
22046;SDS011;11187;49.412;20.956;2023-03-01T14:16:21;27.92;;;18.02;;
22046;SDS011;11187;49.412;20.956;2023-03-01T14:19:19;29.63;;;19.20;;
22046;SDS011;11187;49.412;20.956;2023-03-01T14:24:59;29.45;;;20.58;;
22046;SDS011;11187;49.412;20.956;2023-03-01T14:28:02;28.48;;;20.25;;
22046;SDS011;11187;49.412;20.956;2023-03-01T14:30:56;31.60;;;21.45;;
22046;SDS011;11187;49.412;20.956;2023-03-01T14:33:54;34.80;;;20.50;;
22046;SDS011;11187;49.412;20.956;2023-03-01T14:36:49;32.83;;;20.25;;
22046;SDS011;11187;49.412;20.956;2023-03-01T14:39:43;34.95;;;19.42;;
22046;SDS011;11187;49.412;20.956;2023-03-01T14:42:16;31.80;;;18.67;;
22046;SDS011;11187;49.412;20.956;2023-03-01T14:45:09;27.98;;;18.48;;
22046;SDS011;11187;49.412;20.956;2023-03-01T14:47:46;38.35;;;20.73;;
22046;SDS011;11187;49.412;20.956;2023-03-01T14:50:41;33.88;;;20.85;;
22046;SDS011;11187;49.412;20.956;2023-03-01T14:53:20;35.63;;;21.50;;
22046;SDS011;11187;49.412;20.956;2023-03-01T14:56:37;37.70;;;23.92;;
22046;SDS011;11187;49.412;20.956;2023-03-01T14:59:23;36.22;;;21.83;;
22046;SDS011;11187;49.412;20.956;2023-03-01T15:02:17;41.38;;;24.23;;
22046;SDS011;11187;49.412;20.956;2023-03-01T15:04:54;32.28;;;19.70;;
22046;SDS011;11187;49.412;20.956;2023-03-01T15:07:51;38.28;;;21.15;;
22046;SDS011;11187;49.412;20.956;2023-03-01T15:10:56;35.83;;;23.13;;
22046;SDS011;11187;49.412;20.956;2023-03-01T15:14:36;38.40;;;22.65;;
22046;SDS011;11187;49.412;20.956;2023-03-01T15:17:30;33.60;;;21.75;;
22046;SDS011;11187;49.412;20.956;2023-03-01T15:20:27;35.50;;;23.35;;
22046;SDS011;11187;49.412;20.956;2023-03-01T15:25:59;39.60;;;23.42;;
22046;SDS011;11187;49.412;20.956;2023-03-01T15:28:49;42.38;;;25.27;;
22046;SDS011;11187;49.412;20.956;2023-03-01T15:31:28;33.58;;;21.15;;
22046;SDS011;11187;49.412;20.956;2023-03-01T15:34:23;36.20;;;24.23;;
22046;SDS011;11187;49.412;20.956;2023-03-01T15:36:59;40.72;;;23.55;;
22046;SDS011;11187;49.412;20.956;2023-03-01T15:39:54;37.03;;;21.92;;
22046;SDS011;11187;49.412;20.956;2023-03-01T15:50:54;32.75;;;23.60;;
22046;SDS011;11187;49.412;20.956;2023-03-01T15:53:50;34.33;;;24.58;;
22046;SDS011;11187;49.412;20.956;2023-03-01T15:56:25;56.83;;;24.83;;
22046;SDS011;11187;49.412;20.956;2023-03-01T15:59:12;45.40;;;23.83;;
22046;SDS011;11187;49.412;20.956;2023-03-01T16:01:49;39.60;;;26.35;;
22046;SDS011;11187;49.412;20.956;2023-03-01T16:04:43;55.03;;;25.23;;
22046;SDS011;11187;49.412;20.956;2023-03-01T16:07:30;43.97;;;23.83;;
22046;SDS011;11187;49.412;20.956;2023-03-01T16:10:10;43.47;;;24.15;;
22046;SDS011;11187;49.412;20.956;2023-03-01T16:12:43;33.22;;;22.77;;
22046;SDS011;11187;49.412;20.956;2023-03-01T16:15:39;42.42;;;24.02;;
22046;SDS011;11187;49.412;20.956;2023-03-01T16:18:12;44.80;;;23.98;;
22046;SDS011;11187;49.412;20.956;2023-03-01T16:21:06;42.67;;;24.30;;
22046;SDS011;11187;49.412;20.956;2023-03-01T16:23:39;39.30;;;25.52;;
22046;SDS011;11187;49.412;20.956;2023-03-01T16:26:26;42.67;;;25.33;;
22046;SDS011;11187;49.412;20.956;2023-03-01T16:28:59;43.40;;;25.33;;
22046;SDS011;11187;49.412;20.956;2023-03-01T16:31:53;42.20;;;23.80;;
22046;SDS011;11187;49.412;20.956;2023-03-01T16:34:26;42.53;;;25.48;;
22046;SDS011;11187;49.412;20.956;2023-03-01T16:37:13;41.70;;;24.67;;
22046;SDS011;11187;49.412;20.956;2023-03-01T16:39:46;45.85;;;26.30;;
22046;SDS011;11187;49.412;20.956;2023-03-01T16:42:40;51.97;;;25.73;;
22046;SDS011;11187;49.412;20.956;2023-03-01T16:45:13;48.35;;;27.20;;
22046;SDS011;11187;49.412;20.956;2023-03-01T16:48:04;52.83;;;33.33;;
22046;SDS011;11187;49.412;20.956;2023-03-01T16:50:37;52.97;;;33.85;;
22046;SDS011;11187;49.412;20.956;2023-03-01T16:53:31;55.75;;;29.30;;
22046;SDS011;11187;49.412;20.956;2023-03-01T16:56:19;54.10;;;33.97;;
22046;SDS011;11187;49.412;20.956;2023-03-01T16:58:59;60.83;;;31.80;;
22046;SDS011;11187;49.412;20.956;2023-03-01T17:01:39;56.63;;;30.80;;
22046;SDS011;11187;49.412;20.956;2023-03-01T17:04:20;62.25;;;32.63;;
22046;SDS011;11187;49.412;20.956;2023-03-01T17:06:53;83.68;;;37.28;;
22046;SDS011;11187;49.412;20.956;2023-03-01T17:09:47;61.63;;;31.45;;
22046;SDS011;11187;49.412;20.956;2023-03-01T17:12:20;56.08;;;29.73;;
22046;SDS011;11187;49.412;20.956;2023-03-01T17:15:14;53.63;;;28.77;;
22046;SDS011;11187;49.412;20.956;2023-03-01T17:18:08;52.60;;;29.35;;
22046;SDS011;11187;49.412;20.956;2023-03-01T17:20:42;65.15;;;32.22;;
22046;SDS011;11187;49.412;20.956;2023-03-01T17:23:29;68.63;;;32.90;;
22046;SDS011;11187;49.412;20.956;2023-03-01T17:26:03;57.90;;;27.92;;
22046;SDS011;11187;49.412;20.956;2023-03-01T17:28:52;51.38;;;26.55;;
22046;SDS011;11187;49.412;20.956;2023-03-01T17:31:25;51.55;;;27.48;;
22046;SDS011;11187;49.412;20.956;2023-03-01T17:34:19;47.17;;;28.48;;
22046;SDS011;11187;49.412;20.956;2023-03-01T17:36:52;50.60;;;28.38;;
22046;SDS011;11187;49.412;20.956;2023-03-01T17:39:46;58.35;;;28.70;;
22046;SDS011;11187;49.412;20.956;2023-03-01T17:42:40;50.22;;;28.63;;
22046;SDS011;11187;49.412;20.956;2023-03-01T17:45:13;52.42;;;27.17;;
22046;SDS011;11187;49.412;20.956;2023-03-01T17:48:07;58.22;;;29.13;;
22046;SDS011;11187;49.412;20.956;2023-03-01T17:51:04;53.03;;;27.05;;
22046;SDS011;11187;49.412;20.956;2023-03-01T17:53:59;58.60;;;31.88;;